sensor_id;sensor_type;location;lat;lon;timestamp;P1;durP1;ratioP1;P2;durP2;ratioP2
43086;SDS011;28708;52.224;6.924;2024-01-06T00:01:47;6.17;;;3.13;;
43086;SDS011;28708;52.224;6.924;2024-01-06T00:04:13;5.33;;;2.60;;
43086;SDS011;28708;52.224;6.924;2024-01-06T00:06:39;4.40;;;1.90;;
43086;SDS011;28708;52.224;6.924;2024-01-06T00:09:04;6.73;;;3.20;;
43086;SDS011;28708;52.224;6.924;2024-01-06T00:11:30;5.80;;;2.70;;
43086;SDS011;28708;52.224;6.924;2024-01-06T00:13:55;6.00;;;2.70;;
43086;SDS011;28708;52.224;6.924;2024-01-06T00:16:21;5.50;;;2.30;;
43086;SDS011;28708;52.224;6.924;2024-01-06T00:18:47;7.50;;;2.37;;
43086;SDS011;28708;52.224;6.924;2024-01-06T00:21:13;5.17;;;2.30;;
43086;SDS011;28708;52.224;6.924;2024-01-06T00:23:42;4.77;;;2.27;;
43086;SDS011;28708;52.224;6.924;2024-01-06T00:26:08;5.77;;;2.27;;
43086;SDS011;28708;52.224;6.924;2024-01-06T00:28:35;5.30;;;2.73;;
43086;SDS011;28708;52.224;6.924;2024-01-06T00:31:00;6.10;;;2.43;;
43086;SDS011;28708;52.224;6.924;2024-01-06T00:33:26;4.80;;;2.30;;
43086;SDS011;28708;52.224;6.924;2024-01-06T00:35:52;4.50;;;2.07;;
43086;SDS011;28708;52.224;6.924;2024-01-06T00:38:17;6.27;;;2.90;;
43086;SDS011;28708;52.224;6.924;2024-01-06T00:40:43;7.70;;;3.60;;
43086;SDS011;28708;52.224;6.924;2024-01-06T00:43:09;6.13;;;2.93;;
43086;SDS011;28708;52.224;6.924;2024-01-06T00:45:35;6.00;;;2.63;;
43086;SDS011;28708;52.224;6.924;2024-01-06T00:48:00;8.90;;;3.13;;
43086;SDS011;28708;52.224;6.924;2024-01-06T00:50:26;7.07;;;2.70;;
43086;SDS011;28708;52.224;6.924;2024-01-06T00:52:51;8.27;;;3.57;;
43086;SDS011;28708;52.224;6.924;2024-01-06T00:55:20;5.63;;;2.63;;
43086;SDS011;28708;52.224;6.924;2024-01-06T00:57:46;7.60;;;2.50;;
43086;SDS011;28708;52.224;6.924;2024-01-06T01:00:12;6.30;;;2.93;;
43086;SDS011;28708;52.224;6.924;2024-01-06T01:02:38;10.13;;;3.07;;
43086;SDS011;28708;52.224;6.924;2024-01-06T01:05:04;4.87;;;2.10;;
43086;SDS011;28708;52.224;6.924;2024-01-06T01:07:32;5.63;;;3.07;;
43086;SDS011;28708;52.224;6.924;2024-01-06T01:09:58;6.57;;;2.80;;
43086;SDS011;28708;52.224;6.924;2024-01-06T01:12:23;6.50;;;2.93;;
43086;SDS011;28708;52.224;6.924;2024-01-06T01:14:49;6.43;;;2.80;;
43086;SDS011;28708;52.224;6.924;2024-01-06T01:17:16;4.83;;;2.10;;
43086;SDS011;28708;52.224;6.924;2024-01-06T01:19:42;6.70;;;2.90;;
43086;SDS011;28708;52.224;6.924;2024-01-06T01:22:07;6.10;;;2.50;;
43086;SDS011;28708;52.224;6.924;2024-01-06T01:24:33;7.10;;;2.60;;
43086;SDS011;28708;52.224;6.924;2024-01-06T01:26:59;6.10;;;2.60;;
43086;SDS011;28708;52.224;6.924;2024-01-06T01:29:25;5.30;;;2.30;;
43086;SDS011;28708;52.224;6.924;2024-01-06T01:31:50;4.37;;;2.43;;
43086;SDS011;28708;52.224;6.924;2024-01-06T01:34:16;5.43;;;2.80;;
43086;SDS011;28708;52.224;6.924;2024-01-06T01:36:41;5.70;;;2.47;;
43086;SDS011;28708;52.224;6.924;2024-01-06T01:39:08;7.33;;;2.80;;
43086;SDS011;28708;52.224;6.924;2024-01-06T01:41:33;7.00;;;2.40;;
43086;SDS011;28708;52.224;6.924;2024-01-06T01:43:59;4.00;;;1.70;;
43086;SDS011;28708;52.224;6.924;2024-01-06T01:46:28;4.63;;;2.50;;
43086;SDS011;28708;52.224;6.924;2024-01-06T01:48:55;5.70;;;2.65;;
43086;SDS011;28708;52.224;6.924;2024-01-06T01:51:21;5.37;;;2.40;;
43086;SDS011;28708;52.224;6.924;2024-01-06T01:53:48;9.50;;;3.07;;
43086;SDS011;28708;52.224;6.924;2024-01-06T01:56:14;7.17;;;2.47;;
43086;SDS011;28708;52.224;6.924;2024-01-06T01:58:41;7.73;;;2.50;;
43086;SDS011;28708;52.224;6.924;2024-01-06T02:01:07;6.67;;;3.53;;
43086;SDS011;28708;52.224;6.924;2024-01-06T02:03:34;6.17;;;2.83;;
43086;SDS011;28708;52.224;6.924;2024-01-06T02:06:00;7.43;;;3.17;;
43086;SDS011;28708;52.224;6.924;2024-01-06T02:08:26;7.60;;;3.77;;
43086;SDS011;28708;52.224;6.924;2024-01-06T02:10:54;7.90;;;3.80;;
43086;SDS011;28708;52.224;6.924;2024-01-06T02:13:21;6.20;;;2.87;;
43086;SDS011;28708;52.224;6.924;2024-01-06T02:15:47;9.00;;;3.37;;
43086;SDS011;28708;52.224;6.924;2024-01-06T02:18:12;10.07;;;3.63;;
43086;SDS011;28708;52.224;6.924;2024-01-06T02:20:38;8.80;;;4.07;;
43086;SDS011;28708;52.224;6.924;2024-01-06T02:23:08;9.82;;;2.78;;
43086;SDS011;28708;52.224;6.924;2024-01-06T02:25:33;8.20;;;3.27;;
43086;SDS011;28708;52.224;6.924;2024-01-06T02:28:00;10.73;;;4.13;;
43086;SDS011;28708;52.224;6.924;2024-01-06T02:30:26;9.73;;;3.40;;
43086;SDS011;28708;52.224;6.924;2024-01-06T02:32:51;9.23;;;3.37;;
43086;SDS011;28708;52.224;6.924;2024-01-06T02:35:17;6.47;;;3.00;;
43086;SDS011;28708;52.224;6.924;2024-01-06T02:37:43;10.47;;;3.50;;
43086;SDS011;28708;52.224;6.924;2024-01-06T02:40:09;7.03;;;3.10;;
43086;SDS011;28708;52.224;6.924;2024-01-06T02:42:35;7.03;;;2.77;;
43086;SDS011;28708;52.224;6.924;2024-01-06T02:45:00;6.07;;;3.07;;
43086;SDS011;28708;52.224;6.924;2024-01-06T02:47:26;5.10;;;2.13;;
43086;SDS011;28708;52.224;6.924;2024-01-06T02:49:52;7.73;;;2.90;;
43086;SDS011;28708;52.224;6.924;2024-01-06T02:52:17;8.17;;;2.80;;
43086;SDS011;28708;52.224;6.924;2024-01-06T02:54:43;5.00;;;1.83;;
43086;SDS011;28708;52.224;6.924;2024-01-06T02:57:08;7.00;;;3.13;;
43086;SDS011;28708;52.224;6.924;2024-01-06T02:59:34;6.90;;;2.80;;
43086;SDS011;28708;52.224;6.924;2024-01-06T03:02:01;9.03;;;2.90;;
43086;SDS011;28708;52.224;6.924;2024-01-06T03:04:27;6.50;;;2.93;;
43086;SDS011;28708;52.224;6.924;2024-01-06T03:06:52;9.03;;;3.10;;
43086;SDS011;28708;52.224;6.924;2024-01-06T03:09:18;11.10;;;3.10;;
43086;SDS011;28708;52.224;6.924;2024-01-06T03:11:47;8.43;;;4.03;;
43086;SDS011;28708;52.224;6.924;2024-01-06T03:14:12;9.77;;;3.50;;
43086;SDS011;28708;52.224;6.924;2024-01-06T03:16:38;7.67;;;3.60;;
43086;SDS011;28708;52.224;6.924;2024-01-06T03:19:04;9.17;;;3.67;;
43086;SDS011;28708;52.224;6.924;2024-01-06T03:21:29;7.90;;;3.40;;
43086;SDS011;28708;52.224;6.924;2024-01-06T03:23:55;6.33;;;2.90;;
43086;SDS011;28708;52.224;6.924;2024-01-06T03:26:21;6.77;;;3.23;;
43086;SDS011;28708;52.224;6.924;2024-01-06T03:28:48;7.30;;;3.07;;
43086;SDS011;28708;52.224;6.924;2024-01-06T03:31:14;9.50;;;3.60;;
43086;SDS011;28708;52.224;6.924;2024-01-06T03:33:40;13.70;;;3.60;;
43086;SDS011;28708;52.224;6.924;2024-01-06T03:36:06;7.60;;;2.47;;
43086;SDS011;28708;52.224;6.924;2024-01-06T03:38:32;8.87;;;3.27;;
43086;SDS011;28708;52.224;6.924;2024-01-06T03:40:58;8.17;;;3.30;;
43086;SDS011;28708;52.224;6.924;2024-01-06T03:43:24;8.23;;;3.50;;
43086;SDS011;28708;52.224;6.924;2024-01-06T03:45:49;7.97;;;3.33;;
43086;SDS011;28708;52.224;6.924;2024-01-06T03:48:15;10.70;;;4.30;;
43086;SDS011;28708;52.224;6.924;2024-01-06T03:50:41;9.63;;;3.97;;
43086;SDS011;28708;52.224;6.924;2024-01-06T03:53:06;9.00;;;4.13;;
43086;SDS011;28708;52.224;6.924;2024-01-06T03:55:32;11.17;;;4.07;;
43086;SDS011;28708;52.224;6.924;2024-01-06T03:57:58;10.67;;;4.53;;
43086;SDS011;28708;52.224;6.924;2024-01-06T04:00:24;10.03;;;4.10;;
43086;SDS011;28708;52.224;6.924;2024-01-06T04:02:53;11.45;;;4.20;;
43086;SDS011;28708;52.224;6.924;2024-01-06T04:05:18;10.10;;;5.10;;
43086;SDS011;28708;52.224;6.924;2024-01-06T04:07:44;9.67;;;3.97;;
43086;SDS011;28708;52.224;6.924;2024-01-06T04:10:10;7.43;;;3.43;;
43086;SDS011;28708;52.224;6.924;2024-01-06T04:12:35;11.47;;;4.57;;
43086;SDS011;28708;52.224;6.924;2024-01-06T04:15:01;11.97;;;4.20;;
43086;SDS011;28708;52.224;6.924;2024-01-06T04:17:27;11.50;;;4.17;;
43086;SDS011;28708;52.224;6.924;2024-01-06T04:19:52;7.93;;;3.97;;
43086;SDS011;28708;52.224;6.924;2024-01-06T04:22:18;9.87;;;3.70;;
43086;SDS011;28708;52.224;6.924;2024-01-06T04:24:44;10.57;;;4.47;;
43086;SDS011;28708;52.224;6.924;2024-01-06T04:27:10;10.60;;;3.80;;
43086;SDS011;28708;52.224;6.924;2024-01-06T04:29:35;11.90;;;4.63;;
43086;SDS011;28708;52.224;6.924;2024-01-06T04:32:01;9.53;;;4.20;;
43086;SDS011;28708;52.224;6.924;2024-01-06T04:34:27;9.53;;;3.60;;
43086;SDS011;28708;52.224;6.924;2024-01-06T04:36:53;12.17;;;4.47;;
43086;SDS011;28708;52.224;6.924;2024-01-06T04:39:18;9.20;;;4.13;;
43086;SDS011;28708;52.224;6.924;2024-01-06T04:41:44;16.77;;;4.63;;
43086;SDS011;28708;52.224;6.924;2024-01-06T04:44:09;13.40;;;5.30;;
43086;SDS011;28708;52.224;6.924;2024-01-06T04:46:35;11.77;;;4.90;;
43086;SDS011;28708;52.224;6.924;2024-01-06T04:49:01;12.73;;;5.17;;
43086;SDS011;28708;52.224;6.924;2024-01-06T04:51:26;14.60;;;5.17;;
43086;SDS011;28708;52.224;6.924;2024-01-06T04:53:52;14.47;;;4.97;;
43086;SDS011;28708;52.224;6.924;2024-01-06T04:56:17;13.87;;;4.40;;
43086;SDS011;28708;52.224;6.924;2024-01-06T04:58:43;11.03;;;4.20;;
43086;SDS011;28708;52.224;6.924;2024-01-06T05:01:09;13.20;;;4.53;;
43086;SDS011;28708;52.224;6.924;2024-01-06T05:03:35;13.20;;;4.77;;
43086;SDS011;28708;52.224;6.924;2024-01-06T05:06:01;12.67;;;4.33;;
43086;SDS011;28708;52.224;6.924;2024-01-06T05:08:26;9.80;;;4.47;;
43086;SDS011;28708;52.224;6.924;2024-01-06T05:10:52;13.37;;;4.70;;
43086;SDS011;28708;52.224;6.924;2024-01-06T05:13:21;12.47;;;4.90;;
43086;SDS011;28708;52.224;6.924;2024-01-06T05:15:47;9.37;;;4.00;;
43086;SDS011;28708;52.224;6.924;2024-01-06T05:18:12;11.13;;;4.60;;
43086;SDS011;28708;52.224;6.924;2024-01-06T05:20:38;10.50;;;3.67;;
43086;SDS011;28708;52.224;6.924;2024-01-06T05:23:06;11.73;;;4.70;;
43086;SDS011;28708;52.224;6.924;2024-01-06T05:25:32;13.40;;;4.90;;
43086;SDS011;28708;52.224;6.924;2024-01-06T05:27:57;11.77;;;4.57;;
43086;SDS011;28708;52.224;6.924;2024-01-06T05:30:23;13.80;;;5.13;;
43086;SDS011;28708;52.224;6.924;2024-01-06T05:32:49;15.33;;;5.37;;
43086;SDS011;28708;52.224;6.924;2024-01-06T05:35:15;11.77;;;4.60;;
43086;SDS011;28708;52.224;6.924;2024-01-06T05:37:41;13.10;;;4.80;;
43086;SDS011;28708;52.224;6.924;2024-01-06T05:40:07;16.07;;;5.20;;
43086;SDS011;28708;52.224;6.924;2024-01-06T05:42:33;11.07;;;4.77;;
43086;SDS011;28708;52.224;6.924;2024-01-06T05:44:59;13.53;;;5.10;;
43086;SDS011;28708;52.224;6.924;2024-01-06T05:47:24;11.53;;;5.37;;
43086;SDS011;28708;52.224;6.924;2024-01-06T05:49:50;13.30;;;5.17;;
43086;SDS011;28708;52.224;6.924;2024-01-06T05:52:15;13.07;;;5.50;;
43086;SDS011;28708;52.224;6.924;2024-01-06T05:54:41;12.40;;;5.73;;
43086;SDS011;28708;52.224;6.924;2024-01-06T05:57:07;7.77;;;3.97;;
43086;SDS011;28708;52.224;6.924;2024-01-06T05:59:33;11.10;;;5.17;;
43086;SDS011;28708;52.224;6.924;2024-01-06T06:01:59;14.30;;;5.13;;
43086;SDS011;28708;52.224;6.924;2024-01-06T06:04:25;14.20;;;4.97;;
43086;SDS011;28708;52.224;6.924;2024-01-06T06:06:51;13.30;;;5.43;;
43086;SDS011;28708;52.224;6.924;2024-01-06T06:09:16;14.73;;;5.93;;
43086;SDS011;28708;52.224;6.924;2024-01-06T06:11:42;18.10;;;6.93;;
43086;SDS011;28708;52.224;6.924;2024-01-06T06:14:08;16.63;;;6.03;;
43086;SDS011;28708;52.224;6.924;2024-01-06T06:16:34;13.87;;;5.67;;
43086;SDS011;28708;52.224;6.924;2024-01-06T06:19:00;19.00;;;6.60;;
43086;SDS011;28708;52.224;6.924;2024-01-06T06:21:25;18.40;;;5.23;;
43086;SDS011;28708;52.224;6.924;2024-01-06T06:23:53;17.13;;;5.50;;
43086;SDS011;28708;52.224;6.924;2024-01-06T06:26:18;14.30;;;5.90;;
43086;SDS011;28708;52.224;6.924;2024-01-06T06:28:44;15.37;;;5.13;;
43086;SDS011;28708;52.224;6.924;2024-01-06T06:31:10;11.80;;;5.87;;
43086;SDS011;28708;52.224;6.924;2024-01-06T06:33:35;14.33;;;5.50;;
43086;SDS011;28708;52.224;6.924;2024-01-06T06:36:01;14.57;;;5.13;;
43086;SDS011;28708;52.224;6.924;2024-01-06T06:38:27;15.07;;;5.60;;
43086;SDS011;28708;52.224;6.924;2024-01-06T06:40:53;12.37;;;5.90;;
43086;SDS011;28708;52.224;6.924;2024-01-06T06:43:18;13.57;;;4.83;;
43086;SDS011;28708;52.224;6.924;2024-01-06T06:45:44;16.37;;;6.47;;
43086;SDS011;28708;52.224;6.924;2024-01-06T06:48:10;16.53;;;6.53;;
43086;SDS011;28708;52.224;6.924;2024-01-06T06:50:35;15.90;;;5.30;;
43086;SDS011;28708;52.224;6.924;2024-01-06T06:53:01;17.77;;;6.33;;
43086;SDS011;28708;52.224;6.924;2024-01-06T06:55:27;15.23;;;6.27;;
43086;SDS011;28708;52.224;6.924;2024-01-06T06:57:53;14.43;;;5.93;;
43086;SDS011;28708;52.224;6.924;2024-01-06T07:00:19;13.40;;;5.70;;
43086;SDS011;28708;52.224;6.924;2024-01-06T07:02:45;15.47;;;5.97;;
43086;SDS011;28708;52.224;6.924;2024-01-06T07:05:11;12.87;;;5.57;;
43086;SDS011;28708;52.224;6.924;2024-01-06T07:07:36;20.30;;;5.87;;
43086;SDS011;28708;52.224;6.924;2024-01-06T07:10:03;20.83;;;6.10;;
43086;SDS011;28708;52.224;6.924;2024-01-06T07:12:30;17.07;;;5.77;;
43086;SDS011;28708;52.224;6.924;2024-01-06T07:14:56;16.07;;;6.43;;
43086;SDS011;28708;52.224;6.924;2024-01-06T07:17:23;14.53;;;6.43;;
43086;SDS011;28708;52.224;6.924;2024-01-06T07:19:50;12.60;;;5.73;;
43086;SDS011;28708;52.224;6.924;2024-01-06T07:22:15;14.27;;;6.03;;
43086;SDS011;28708;52.224;6.924;2024-01-06T07:24:44;19.60;;;6.50;;
43086;SDS011;28708;52.224;6.924;2024-01-06T07:27:10;17.33;;;5.67;;
43086;SDS011;28708;52.224;6.924;2024-01-06T07:29:36;18.80;;;6.47;;
43086;SDS011;28708;52.224;6.924;2024-01-06T07:32:02;19.57;;;5.83;;
43086;SDS011;28708;52.224;6.924;2024-01-06T07:34:28;15.43;;;5.90;;
43086;SDS011;28708;52.224;6.924;2024-01-06T07:36:54;17.03;;;6.40;;
43086;SDS011;28708;52.224;6.924;2024-01-06T07:39:19;18.00;;;6.30;;
43086;SDS011;28708;52.224;6.924;2024-01-06T07:41:45;15.63;;;5.77;;
43086;SDS011;28708;52.224;6.924;2024-01-06T07:44:11;14.77;;;4.87;;
43086;SDS011;28708;52.224;6.924;2024-01-06T07:46:38;16.50;;;5.70;;
43086;SDS011;28708;52.224;6.924;2024-01-06T07:49:05;14.77;;;5.37;;
43086;SDS011;28708;52.224;6.924;2024-01-06T07:51:34;15.07;;;5.50;;
43086;SDS011;28708;52.224;6.924;2024-01-06T07:54:00;14.20;;;5.40;;
43086;SDS011;28708;52.224;6.924;2024-01-06T07:56:30;18.23;;;5.07;;
43086;SDS011;28708;52.224;6.924;2024-01-06T07:58:56;14.43;;;5.33;;
43086;SDS011;28708;52.224;6.924;2024-01-06T08:01:21;17.70;;;5.83;;
43086;SDS011;28708;52.224;6.924;2024-01-06T08:03:47;13.73;;;4.87;;
43086;SDS011;28708;52.224;6.924;2024-01-06T08:06:12;18.17;;;5.60;;
43086;SDS011;28708;52.224;6.924;2024-01-06T08:08:38;16.83;;;5.77;;
43086;SDS011;28708;52.224;6.924;2024-01-06T08:11:04;17.37;;;6.63;;
43086;SDS011;28708;52.224;6.924;2024-01-06T08:13:29;17.93;;;6.00;;
43086;SDS011;28708;52.224;6.924;2024-01-06T08:15:57;12.67;;;4.90;;
43086;SDS011;28708;52.224;6.924;2024-01-06T08:18:24;14.13;;;6.23;;
43086;SDS011;28708;52.224;6.924;2024-01-06T08:20:49;16.57;;;7.00;;
43086;SDS011;28708;52.224;6.924;2024-01-06T08:23:15;13.20;;;5.63;;
43086;SDS011;28708;52.224;6.924;2024-01-06T08:25:43;12.83;;;5.03;;
43086;SDS011;28708;52.224;6.924;2024-01-06T08:28:11;16.20;;;6.97;;
43086;SDS011;28708;52.224;6.924;2024-01-06T08:30:36;14.37;;;5.93;;
43086;SDS011;28708;52.224;6.924;2024-01-06T08:33:02;17.23;;;6.40;;
43086;SDS011;28708;52.224;6.924;2024-01-06T08:35:28;14.83;;;6.27;;
43086;SDS011;28708;52.224;6.924;2024-01-06T08:37:54;15.13;;;5.73;;
43086;SDS011;28708;52.224;6.924;2024-01-06T08:40:19;13.60;;;5.80;;
43086;SDS011;28708;52.224;6.924;2024-01-06T08:42:45;14.70;;;5.93;;
43086;SDS011;28708;52.224;6.924;2024-01-06T08:45:10;16.23;;;6.17;;
43086;SDS011;28708;52.224;6.924;2024-01-06T08:47:36;15.47;;;6.10;;
43086;SDS011;28708;52.224;6.924;2024-01-06T08:50:02;14.90;;;6.20;;
43086;SDS011;28708;52.224;6.924;2024-01-06T08:52:29;12.77;;;5.57;;
43086;SDS011;28708;52.224;6.924;2024-01-06T08:54:55;14.37;;;5.47;;
43086;SDS011;28708;52.224;6.924;2024-01-06T08:57:20;14.00;;;5.53;;
43086;SDS011;28708;52.224;6.924;2024-01-06T08:59:46;13.50;;;5.20;;
43086;SDS011;28708;52.224;6.924;2024-01-06T09:02:12;15.00;;;5.30;;
43086;SDS011;28708;52.224;6.924;2024-01-06T09:04:38;12.00;;;4.00;;
43086;SDS011;28708;52.224;6.924;2024-01-06T09:07:04;11.53;;;4.87;;
43086;SDS011;28708;52.224;6.924;2024-01-06T09:09:30;11.93;;;4.47;;
43086;SDS011;28708;52.224;6.924;2024-01-06T09:11:55;12.67;;;5.30;;
43086;SDS011;28708;52.224;6.924;2024-01-06T09:14:21;12.70;;;4.77;;
43086;SDS011;28708;52.224;6.924;2024-01-06T09:16:47;16.33;;;4.50;;
43086;SDS011;28708;52.224;6.924;2024-01-06T09:19:12;16.30;;;5.30;;
43086;SDS011;28708;52.224;6.924;2024-01-06T09:21:38;13.47;;;4.37;;
43086;SDS011;28708;52.224;6.924;2024-01-06T09:24:03;16.40;;;4.73;;
43086;SDS011;28708;52.224;6.924;2024-01-06T09:26:34;11.20;;;4.57;;
43086;SDS011;28708;52.224;6.924;2024-01-06T09:29:03;10.37;;;5.23;;
43086;SDS011;28708;52.224;6.924;2024-01-06T09:31:29;14.37;;;4.90;;
43086;SDS011;28708;52.224;6.924;2024-01-06T09:33:55;13.10;;;4.60;;
43086;SDS011;28708;52.224;6.924;2024-01-06T09:36:20;11.63;;;5.33;;
43086;SDS011;28708;52.224;6.924;2024-01-06T09:38:46;9.30;;;4.40;;
43086;SDS011;28708;52.224;6.924;2024-01-06T09:41:12;12.63;;;4.53;;
43086;SDS011;28708;52.224;6.924;2024-01-06T09:43:37;11.33;;;4.70;;
43086;SDS011;28708;52.224;6.924;2024-01-06T09:48:52;8.50;;;4.47;;
43086;SDS011;28708;52.224;6.924;2024-01-06T09:51:19;13.40;;;4.63;;
43086;SDS011;28708;52.224;6.924;2024-01-06T09:53:58;11.13;;;4.77;;
43086;SDS011;28708;52.224;6.924;2024-01-06T09:56:25;9.27;;;4.30;;
43086;SDS011;28708;52.224;6.924;2024-01-06T09:58:53;13.73;;;4.77;;
43086;SDS011;28708;52.224;6.924;2024-01-06T10:01:19;9.50;;;4.53;;
43086;SDS011;28708;52.224;6.924;2024-01-06T10:03:45;11.20;;;4.23;;
43086;SDS011;28708;52.224;6.924;2024-01-06T10:06:12;10.20;;;4.47;;
43086;SDS011;28708;52.224;6.924;2024-01-06T10:08:39;9.47;;;4.40;;
43086;SDS011;28708;52.224;6.924;2024-01-06T10:11:07;7.10;;;3.77;;
43086;SDS011;28708;52.224;6.924;2024-01-06T10:13:36;9.23;;;4.40;;
43086;SDS011;28708;52.224;6.924;2024-01-06T10:16:07;9.07;;;4.00;;
43086;SDS011;28708;52.224;6.924;2024-01-06T10:18:33;10.23;;;4.83;;
43086;SDS011;28708;52.224;6.924;2024-01-06T10:21:03;10.97;;;4.73;;
43086;SDS011;28708;52.224;6.924;2024-01-06T10:23:31;14.05;;;4.78;;
43086;SDS011;28708;52.224;6.924;2024-01-06T10:25:57;8.77;;;4.73;;
43086;SDS011;28708;52.224;6.924;2024-01-06T10:28:23;9.37;;;4.47;;
43086;SDS011;28708;52.224;6.924;2024-01-06T10:30:52;10.83;;;5.07;;
43086;SDS011;28708;52.224;6.924;2024-01-06T10:33:19;14.85;;;5.25;;
43086;SDS011;28708;52.224;6.924;2024-01-06T10:35:46;11.33;;;3.93;;
43086;SDS011;28708;52.224;6.924;2024-01-06T10:38:12;10.03;;;4.60;;
43086;SDS011;28708;52.224;6.924;2024-01-06T10:40:40;10.07;;;4.83;;
43086;SDS011;28708;52.224;6.924;2024-01-06T10:43:06;9.30;;;4.77;;
43086;SDS011;28708;52.224;6.924;2024-01-06T10:45:34;10.37;;;4.80;;
43086;SDS011;28708;52.224;6.924;2024-01-06T10:48:01;9.20;;;3.97;;
43086;SDS011;28708;52.224;6.924;2024-01-06T10:50:30;9.37;;;5.10;;
43086;SDS011;28708;52.224;6.924;2024-01-06T10:52:57;10.23;;;5.13;;
43086;SDS011;28708;52.224;6.924;2024-01-06T10:55:24;9.40;;;4.20;;
43086;SDS011;28708;52.224;6.924;2024-01-06T10:57:51;10.43;;;4.93;;
43086;SDS011;28708;52.224;6.924;2024-01-06T11:00:19;11.07;;;5.07;;
43086;SDS011;28708;52.224;6.924;2024-01-06T11:02:45;11.13;;;5.10;;
43086;SDS011;28708;52.224;6.924;2024-01-06T11:05:12;11.40;;;4.87;;
43086;SDS011;28708;52.224;6.924;2024-01-06T11:07:38;8.67;;;4.70;;
43086;SDS011;28708;52.224;6.924;2024-01-06T11:10:06;8.30;;;4.40;;
43086;SDS011;28708;52.224;6.924;2024-01-06T11:12:36;7.40;;;3.80;;
43086;SDS011;28708;52.224;6.924;2024-01-06T11:15:01;9.87;;;4.33;;
43086;SDS011;28708;52.224;6.924;2024-01-06T11:20:21;9.60;;;4.33;;
43086;SDS011;28708;52.224;6.924;2024-01-06T11:22:48;9.07;;;4.23;;
43086;SDS011;28708;52.224;6.924;2024-01-06T11:25:18;6.77;;;3.60;;
43086;SDS011;28708;52.224;6.924;2024-01-06T11:27:46;8.57;;;3.93;;
43086;SDS011;28708;52.224;6.924;2024-01-06T11:30:19;8.67;;;3.90;;
43086;SDS011;28708;52.224;6.924;2024-01-06T11:32:48;9.40;;;4.13;;
43086;SDS011;28708;52.224;6.924;2024-01-06T11:35:17;6.85;;;3.60;;
43086;SDS011;28708;52.224;6.924;2024-01-06T11:45:37;7.03;;;3.73;;
43086;SDS011;28708;52.224;6.924;2024-01-06T11:48:07;8.53;;;4.00;;
43086;SDS011;28708;52.224;6.924;2024-01-06T11:50:35;7.90;;;4.10;;
43086;SDS011;28708;52.224;6.924;2024-01-06T11:53:02;6.93;;;3.50;;
43086;SDS011;28708;52.224;6.924;2024-01-06T11:55:29;7.27;;;4.10;;
43086;SDS011;28708;52.224;6.924;2024-01-06T11:57:57;8.73;;;4.00;;
43086;SDS011;28708;52.224;6.924;2024-01-06T12:00:27;8.50;;;4.72;;
43086;SDS011;28708;52.224;6.924;2024-01-06T12:02:59;7.20;;;3.77;;
43086;SDS011;28708;52.224;6.924;2024-01-06T12:05:26;8.70;;;3.90;;
43086;SDS011;28708;52.224;6.924;2024-01-06T12:07:56;7.03;;;3.53;;
43086;SDS011;28708;52.224;6.924;2024-01-06T12:10:23;7.03;;;3.40;;
43086;SDS011;28708;52.224;6.924;2024-01-06T12:12:57;7.13;;;3.73;;
43086;SDS011;28708;52.224;6.924;2024-01-06T12:15:27;8.37;;;4.07;;
43086;SDS011;28708;52.224;6.924;2024-01-06T12:17:54;9.83;;;4.27;;
43086;SDS011;28708;52.224;6.924;2024-01-06T12:20:21;5.80;;;3.43;;
43086;SDS011;28708;52.224;6.924;2024-01-06T12:22:48;7.60;;;3.83;;
43086;SDS011;28708;52.224;6.924;2024-01-06T12:25:14;8.27;;;4.10;;
43086;SDS011;28708;52.224;6.924;2024-01-06T12:27:44;8.30;;;3.83;;
43086;SDS011;28708;52.224;6.924;2024-01-06T12:30:14;10.15;;;4.20;;
43086;SDS011;28708;52.224;6.924;2024-01-06T12:32:44;6.80;;;3.20;;
43086;SDS011;28708;52.224;6.924;2024-01-06T12:35:11;8.30;;;3.60;;
43086;SDS011;28708;52.224;6.924;2024-01-06T12:37:37;11.90;;;4.77;;
43086;SDS011;28708;52.224;6.924;2024-01-06T12:40:04;10.57;;;4.00;;
43086;SDS011;28708;52.224;6.924;2024-01-06T12:42:30;8.23;;;4.03;;
43086;SDS011;28708;52.224;6.924;2024-01-06T12:44:56;8.60;;;4.17;;
43086;SDS011;28708;52.224;6.924;2024-01-06T12:47:24;6.87;;;3.47;;
43086;SDS011;28708;52.224;6.924;2024-01-06T12:49:49;7.57;;;4.53;;
43086;SDS011;28708;52.224;6.924;2024-01-06T12:52:15;10.50;;;4.27;;
43086;SDS011;28708;52.224;6.924;2024-01-06T12:54:43;8.17;;;3.70;;
43086;SDS011;28708;52.224;6.924;2024-01-06T12:57:09;9.73;;;4.33;;
43086;SDS011;28708;52.224;6.924;2024-01-06T12:59:34;9.37;;;4.70;;
43086;SDS011;28708;52.224;6.924;2024-01-06T13:02:00;9.07;;;4.87;;
43086;SDS011;28708;52.224;6.924;2024-01-06T13:04:25;9.17;;;4.30;;
43086;SDS011;28708;52.224;6.924;2024-01-06T13:06:52;8.03;;;4.07;;
43086;SDS011;28708;52.224;6.924;2024-01-06T13:09:17;9.60;;;4.73;;
43086;SDS011;28708;52.224;6.924;2024-01-06T13:11:43;9.87;;;5.07;;
43086;SDS011;28708;52.224;6.924;2024-01-06T13:14:11;12.40;;;5.70;;
43086;SDS011;28708;52.224;6.924;2024-01-06T13:16:37;12.40;;;5.60;;
43086;SDS011;28708;52.224;6.924;2024-01-06T13:19:03;9.97;;;5.20;;
43086;SDS011;28708;52.224;6.924;2024-01-06T13:21:29;12.83;;;5.77;;
43086;SDS011;28708;52.224;6.924;2024-01-06T13:23:55;11.37;;;5.80;;
43086;SDS011;28708;52.224;6.924;2024-01-06T13:26:26;11.57;;;6.00;;
43086;SDS011;28708;52.224;6.924;2024-01-06T13:28:53;11.23;;;6.17;;
43086;SDS011;28708;52.224;6.924;2024-01-06T13:31:18;10.57;;;4.57;;
43086;SDS011;28708;52.224;6.924;2024-01-06T13:33:45;12.03;;;5.37;;
43086;SDS011;28708;52.224;6.924;2024-01-06T13:36:11;11.47;;;5.60;;
43086;SDS011;28708;52.224;6.924;2024-01-06T13:38:37;13.27;;;6.00;;
43086;SDS011;28708;52.224;6.924;2024-01-06T13:41:03;15.13;;;6.13;;
43086;SDS011;28708;52.224;6.924;2024-01-06T13:43:29;14.47;;;6.07;;
43086;SDS011;28708;52.224;6.924;2024-01-06T13:45:56;12.30;;;5.67;;
43086;SDS011;28708;52.224;6.924;2024-01-06T13:48:21;11.63;;;4.97;;
43086;SDS011;28708;52.224;6.924;2024-01-06T13:50:47;11.73;;;5.77;;
43086;SDS011;28708;52.224;6.924;2024-01-06T13:53:13;11.93;;;5.47;;
43086;SDS011;28708;52.224;6.924;2024-01-06T13:55:40;13.83;;;6.77;;
43086;SDS011;28708;52.224;6.924;2024-01-06T13:58:05;19.60;;;7.03;;
43086;SDS011;28708;52.224;6.924;2024-01-06T14:00:34;14.87;;;6.80;;
43086;SDS011;28708;52.224;6.924;2024-01-06T14:03:00;12.23;;;5.60;;
43086;SDS011;28708;52.224;6.924;2024-01-06T14:05:26;16.60;;;6.40;;
43086;SDS011;28708;52.224;6.924;2024-01-06T14:07:53;14.73;;;6.93;;
43086;SDS011;28708;52.224;6.924;2024-01-06T14:10:19;12.23;;;6.77;;
43086;SDS011;28708;52.224;6.924;2024-01-06T14:12:44;13.83;;;6.37;;
43086;SDS011;28708;52.224;6.924;2024-01-06T14:15:10;13.40;;;6.27;;
43086;SDS011;28708;52.224;6.924;2024-01-06T14:17:37;14.40;;;6.87;;
43086;SDS011;28708;52.224;6.924;2024-01-06T14:20:03;14.73;;;6.17;;
43086;SDS011;28708;52.224;6.924;2024-01-06T14:22:29;19.03;;;8.23;;
43086;SDS011;28708;52.224;6.924;2024-01-06T14:24:55;17.83;;;7.73;;
43086;SDS011;28708;52.224;6.924;2024-01-06T14:27:20;15.17;;;7.03;;
43086;SDS011;28708;52.224;6.924;2024-01-06T14:29:47;15.03;;;6.90;;
43086;SDS011;28708;52.224;6.924;2024-01-06T14:32:13;15.73;;;6.80;;
43086;SDS011;28708;52.224;6.924;2024-01-06T14:34:39;11.50;;;5.53;;
43086;SDS011;28708;52.224;6.924;2024-01-06T14:37:05;16.03;;;7.00;;
43086;SDS011;28708;52.224;6.924;2024-01-06T14:39:30;12.33;;;6.20;;
43086;SDS011;28708;52.224;6.924;2024-01-06T14:41:56;14.23;;;5.93;;
43086;SDS011;28708;52.224;6.924;2024-01-06T14:44:22;15.77;;;6.97;;
43086;SDS011;28708;52.224;6.924;2024-01-06T14:46:48;17.67;;;7.73;;
43086;SDS011;28708;52.224;6.924;2024-01-06T14:49:15;13.00;;;6.57;;